createdAt,value
2018-07-23T00:00:08.347Z,18.07
2018-07-23T00:02:37.564Z,18.06
2018-07-23T00:05:07.327Z,18.09
2018-07-23T00:07:36.450Z,18.14
2018-07-23T00:10:05.604Z,18.18
2018-07-23T00:12:34.651Z,18.23
2018-07-23T00:15:03.971Z,18.29
2018-07-23T00:17:32.772Z,18.33
2018-07-23T00:20:02.170Z,18.36
2018-07-23T00:22:30.920Z,18.39
2018-07-23T00:24:59.681Z,18.40
2018-07-23T00:27:28.453Z,18.41
2018-07-23T00:29:57.571Z,18.42
2018-07-23T00:32:26.683Z,18.44
2018-07-23T00:34:55.484Z,18.45
2018-07-23T00:37:24.751Z,18.46
2018-07-23T00:39:53.595Z,18.47
2018-07-23T00:42:22.346Z,18.48
2018-07-23T00:44:51.211Z,18.47
2018-07-23T00:47:19.963Z,18.47
2018-07-23T00:49:49.227Z,18.46
2018-07-23T00:52:18.535Z,18.46
2018-07-23T00:54:47.874Z,18.42
2018-07-23T00:57:17.412Z,18.43
2018-07-23T00:59:47.155Z,18.44
2018-07-23T01:02:16.468Z,18.45
2018-07-23T01:04:45.266Z,18.42
2018-07-23T01:07:13.963Z,18.42
2018-07-23T01:09:42.721Z,18.41
2018-07-23T01:12:11.528Z,18.44
2018-07-23T01:14:40.402Z,18.45
2018-07-23T01:17:09.162Z,18.46
2018-07-23T01:19:37.965Z,18.45
2018-07-23T01:22:07.143Z,18.45
2018-07-23T01:24:36.280Z,18.46
2018-07-23T01:27:05.578Z,18.46
2018-07-23T01:29:34.734Z,18.47
2018-07-23T01:32:05.105Z,18.46
2018-07-23T01:34:34.009Z,18.43
2018-07-23T01:37:04.524Z,18.42
2018-07-23T01:39:33.343Z,18.40
2018-07-23T01:42:02.349Z,18.37
2018-07-23T01:44:31.089Z,18.37
2018-07-23T01:46:59.829Z,18.36
2018-07-23T01:49:29.084Z,18.34
2018-07-23T01:51:58.651Z,18.30
2018-07-23T01:54:27.826Z,18.27
2018-07-23T01:56:57.314Z,18.21
2018-07-23T01:59:26.068Z,18.13
2018-07-23T02:01:55.452Z,18.05
2018-07-23T02:04:24.179Z,18.00
2018-07-23T02:06:52.959Z,17.94
2018-07-23T02:09:21.780Z,17.90
2018-07-23T02:11:50.551Z,17.85
2018-07-23T02:14:19.440Z,17.84
2018-07-23T02:16:48.409Z,17.80
2018-07-23T02:19:17.187Z,17.76
2018-07-23T02:21:45.975Z,17.73
2018-07-23T02:24:14.859Z,17.71
2018-07-23T02:26:43.743Z,17.68
2018-07-23T02:29:12.552Z,17.65
2018-07-23T02:31:41.341Z,17.65
2018-07-23T02:34:10.081Z,17.65
2018-07-23T02:36:39.910Z,17.62
2018-07-23T02:39:10.243Z,17.61
2018-07-23T02:41:39.154Z,17.60
2018-07-23T02:44:08.001Z,17.61
2018-07-23T02:46:37.802Z,17.62
2018-07-23T02:49:08.069Z,17.64
2018-07-23T02:51:37.711Z,17.64
2018-07-23T02:54:07.684Z,17.65
2018-07-23T02:56:37.777Z,17.71
2018-07-23T02:59:07.415Z,17.92
2018-07-23T03:01:37.215Z,18.21
2018-07-23T03:04:06.200Z,18.53
2018-07-23T03:06:35.311Z,18.89
2018-07-23T03:09:06.132Z,19.20
2018-07-23T03:11:35.295Z,19.57
2018-07-23T03:14:04.220Z,19.96
2018-07-23T03:16:33.060Z,20.33
2018-07-23T03:19:01.796Z,20.71
2018-07-23T03:21:30.539Z,21.03
2018-07-23T03:23:59.320Z,21.37
2018-07-23T03:26:28.734Z,21.65
2018-07-23T03:28:57.512Z,21.97
2018-07-23T03:31:26.356Z,22.28
2018-07-23T03:33:55.163Z,22.56
2018-07-23T03:36:24.292Z,22.78
2018-07-23T03:38:53.967Z,23.01
2018-07-23T03:41:22.759Z,23.29
2018-07-23T03:43:51.606Z,23.55
2018-07-23T03:46:20.424Z,23.51
2018-07-23T03:48:50.329Z,23.28
2018-07-23T03:51:19.868Z,23.23
2018-07-23T03:53:49.335Z,23.46
2018-07-23T03:56:18.561Z,23.89
2018-07-23T03:58:47.629Z,24.28
2018-07-23T04:01:17.190Z,24.27
2018-07-23T04:03:46.758Z,24.08
2018-07-23T04:06:15.532Z,24.20
2018-07-23T04:08:44.331Z,24.34
2018-07-23T04:11:13.112Z,24.43
2018-07-23T04:13:41.923Z,24.03
2018-07-23T04:16:10.777Z,23.88
2018-07-23T04:18:39.613Z,23.56
2018-07-23T04:21:08.363Z,23.27
2018-07-23T04:23:38.106Z,23.01
2018-07-23T04:26:07.290Z,22.80
2018-07-23T04:28:36.707Z,22.61
2018-07-23T04:31:06.531Z,22.42
2018-07-23T04:33:36.286Z,22.22
2018-07-23T04:36:05.911Z,22.08
2018-07-23T04:38:36.020Z,22.09
2018-07-23T04:41:05.200Z,22.07
2018-07-23T04:43:33.915Z,22.09
2018-07-23T04:46:02.700Z,22.04
2018-07-23T04:48:32.632Z,22.01
2018-07-23T04:51:02.182Z,21.97
2018-07-23T04:53:32.021Z,21.84
2018-07-23T04:56:01.920Z,21.78
2018-07-23T04:58:30.704Z,21.74
2018-07-23T05:01:00.079Z,21.72
2018-07-23T05:03:29.436Z,21.62
2018-07-23T05:05:58.243Z,21.58
2018-07-23T05:08:26.961Z,21.53
2018-07-23T05:10:55.747Z,21.50
2018-07-23T05:13:24.502Z,21.63
2018-07-23T05:15:53.369Z,21.65
2018-07-23T05:18:22.328Z,21.70
2018-07-23T05:20:51.119Z,21.76
2018-07-23T05:23:19.867Z,21.83
2018-07-23T05:25:49.043Z,21.74
2018-07-23T05:28:18.071Z,21.66
2018-07-23T05:30:46.817Z,21.57
2018-07-23T05:33:15.957Z,21.42
2018-07-23T05:35:44.675Z,21.40
2018-07-23T05:38:14.241Z,21.43
2018-07-23T05:40:42.989Z,21.44
2018-07-23T05:43:11.762Z,21.36
2018-07-23T05:45:40.672Z,21.39
2018-07-23T05:48:10.021Z,21.36
2018-07-23T05:50:39.607Z,21.32
2018-07-23T05:53:09.059Z,21.27
2018-07-23T05:55:38.693Z,21.36
2018-07-23T05:58:07.868Z,21.55
2018-07-23T06:00:37.294Z,21.74
2018-07-23T06:03:07.015Z,21.87
2018-07-23T06:05:36.078Z,22.00
2018-07-23T06:08:05.082Z,21.99
2018-07-23T06:10:33.908Z,22.09
2018-07-23T06:13:02.756Z,22.07
2018-07-23T06:15:31.631Z,21.99
2018-07-23T06:18:00.389Z,21.96
2018-07-23T06:20:29.115Z,22.04
2018-07-23T06:22:57.931Z,22.15
2018-07-23T06:25:26.679Z,22.28
2018-07-23T06:27:55.732Z,22.36
2018-07-23T06:30:24.511Z,22.42
2018-07-23T06:32:53.254Z,22.44
2018-07-23T06:35:22.017Z,22.44
2018-07-23T06:37:51.831Z,22.50
2018-07-23T06:40:20.899Z,22.56
2018-07-23T06:42:49.685Z,22.71
2018-07-23T06:45:18.487Z,22.90
2018-07-23T06:47:47.936Z,23.06
2018-07-23T06:50:17.334Z,23.26
2018-07-23T06:52:47.049Z,23.44
2018-07-23T06:55:16.706Z,23.64
2018-07-23T06:57:45.516Z,23.87
2018-07-23T07:00:14.753Z,23.87
2018-07-23T07:02:43.946Z,23.84
2018-07-23T07:05:12.789Z,24.01
2018-07-23T07:07:41.502Z,24.26
2018-07-23T07:10:10.330Z,24.39
2018-07-23T07:12:39.094Z,24.25
2018-07-23T07:15:09.290Z,23.89
2018-07-23T07:17:38.437Z,23.57
2018-07-23T07:20:07.752Z,23.60
2018-07-23T07:22:37.030Z,23.62
2018-07-23T07:25:06.043Z,24.03
2018-07-23T07:27:35.992Z,24.33
2018-07-23T07:30:06.069Z,24.56
2018-07-23T07:32:34.979Z,24.57
2018-07-23T07:35:03.816Z,24.52
2018-07-23T07:37:33.499Z,24.38
2018-07-23T07:40:02.244Z,24.31
2018-07-23T07:42:30.983Z,24.25
2018-07-23T07:44:59.815Z,24.21
2018-07-23T07:47:28.575Z,24.33
2018-07-23T07:49:58.302Z,24.40
2018-07-23T07:52:27.879Z,24.50
2018-07-23T07:54:57.619Z,24.57
2018-07-23T07:57:27.084Z,24.62
2018-07-23T07:59:55.866Z,24.49
2018-07-23T08:02:25.407Z,24.43
2018-07-23T08:04:54.220Z,24.52
2018-07-23T08:07:22.976Z,24.63
2018-07-23T08:09:51.802Z,24.57
2018-07-23T08:12:20.569Z,24.43
2018-07-23T08:14:49.441Z,24.32
2018-07-23T08:17:18.976Z,24.46
2018-07-23T08:19:47.728Z,24.54
2018-07-23T08:22:16.499Z,24.84
2018-07-23T08:24:45.595Z,25.01
2018-07-23T08:27:14.523Z,24.83
2018-07-23T08:29:44.115Z,24.64
2018-07-23T08:32:12.979Z,24.50
2018-07-23T08:34:41.691Z,24.44
2018-07-23T08:37:10.519Z,24.69
2018-07-23T08:39:39.289Z,24.84
2018-07-23T08:42:08.365Z,24.96
2018-07-23T08:44:37.685Z,25.13
2018-07-23T08:47:07.431Z,25.18
2018-07-23T08:49:37.008Z,25.24
2018-07-23T08:52:06.895Z,25.07
2018-07-23T08:54:35.892Z,24.91
2018-07-23T08:57:05.765Z,25.07
2018-07-23T08:59:34.688Z,25.06
2018-07-23T09:02:04.297Z,25.29
2018-07-23T09:04:33.100Z,25.42
2018-07-23T09:07:01.832Z,25.51
2018-07-23T09:09:30.595Z,25.62
2018-07-23T09:11:59.377Z,25.57
2018-07-23T09:14:28.251Z,25.47
2018-07-23T09:16:57.061Z,25.37
2018-07-23T09:19:25.851Z,25.37
2018-07-23T09:21:54.648Z,25.20
2018-07-23T09:24:23.690Z,25.30
2018-07-23T09:26:52.744Z,25.31
2018-07-23T09:29:21.591Z,25.42
2018-07-23T09:31:50.506Z,25.41
2018-07-23T09:34:19.287Z,25.45
2018-07-23T09:36:49.286Z,25.53
2018-07-23T09:39:18.085Z,25.52
2018-07-23T09:41:46.846Z,25.70
2018-07-23T09:44:15.661Z,25.83
2018-07-23T09:46:44.395Z,25.96
2018-07-23T09:49:13.978Z,26.11
2018-07-23T09:51:43.371Z,26.15
2018-07-23T09:54:12.140Z,26.13
2018-07-23T09:56:41.668Z,26.10
2018-07-23T09:59:10.437Z,26.11
2018-07-23T10:01:40.007Z,26.13
2018-07-23T10:04:10.915Z,26.14
2018-07-23T10:06:39.700Z,26.14
2018-07-23T10:09:10.479Z,26.14
2018-07-23T10:11:39.425Z,26.10
2018-07-23T10:14:08.879Z,26.11
2018-07-23T10:16:38.691Z,26.21
2018-07-23T10:19:08.431Z,26.43
2018-07-23T10:21:37.671Z,26.54
2018-07-23T10:24:07.005Z,26.61
2018-07-23T10:26:35.975Z,26.66
2018-07-23T10:29:05.896Z,26.71
2018-07-23T10:31:34.694Z,26.82
2018-07-23T10:34:03.540Z,26.85
2018-07-23T10:36:32.333Z,26.81
2018-07-23T10:39:01.138Z,26.76
2018-07-23T10:41:30.016Z,26.73
2018-07-23T10:43:58.867Z,26.56
2018-07-23T10:46:27.668Z,26.54
2018-07-23T10:48:57.178Z,26.55
2018-07-23T10:51:26.594Z,26.58
2018-07-23T10:53:56.324Z,26.40
2018-07-23T10:56:26.009Z,26.52
2018-07-23T10:58:54.751Z,26.48
2018-07-23T11:01:25.172Z,26.49
2018-07-23T11:03:53.922Z,26.46
2018-07-23T11:06:23.011Z,26.42
2018-07-23T11:08:52.284Z,26.42
2018-07-23T11:11:21.070Z,26.49
2018-07-23T11:13:50.092Z,26.67
2018-07-23T11:16:19.039Z,26.66
2018-07-23T11:18:47.790Z,26.68
2018-07-23T11:21:16.575Z,26.71
2018-07-23T11:23:45.393Z,26.83
2018-07-23T11:26:14.323Z,26.98
2018-07-23T11:28:43.163Z,27.07
2018-07-23T11:31:11.971Z,27.29
2018-07-23T11:33:40.674Z,27.40
2018-07-23T11:36:09.467Z,27.46
2018-07-23T11:38:38.492Z,27.59
2018-07-23T11:41:07.859Z,27.68
2018-07-23T11:43:36.940Z,27.62
2018-07-23T11:46:06.022Z,27.70
2018-07-23T11:48:36.262Z,27.91
2018-07-23T11:51:06.047Z,28.09
2018-07-23T11:53:34.932Z,28.17
2018-07-23T11:56:04.770Z,28.01
2018-07-23T11:58:33.674Z,27.86
2018-07-23T12:01:03.063Z,27.91
2018-07-23T12:03:32.280Z,28.01
2018-07-23T12:06:01.009Z,28.13
2018-07-23T12:08:29.823Z,28.31
2018-07-23T12:10:58.600Z,28.44
2018-07-23T12:13:27.360Z,28.35
2018-07-23T12:15:56.250Z,28.22
2018-07-23T12:18:25.094Z,28.00
2018-07-23T12:20:53.807Z,28.05
2018-07-23T12:23:22.605Z,28.18
2018-07-23T12:25:51.360Z,28.11
2018-07-23T12:28:20.227Z,28.02
2018-07-23T12:30:49.032Z,27.92
2018-07-23T12:33:17.909Z,27.83
2018-07-23T12:35:46.634Z,27.97
2018-07-23T12:38:15.636Z,27.97
2018-07-23T12:40:44.715Z,28.12
2018-07-23T12:43:13.563Z,28.27
2018-07-23T12:45:42.322Z,28.43
2018-07-23T12:48:11.879Z,28.52
2018-07-23T12:50:41.443Z,28.63
2018-07-23T12:53:10.219Z,28.63
2018-07-23T12:55:40.176Z,28.40
2018-07-23T12:58:09.763Z,28.47
2018-07-23T13:00:39.187Z,28.42
2018-07-23T13:03:08.688Z,28.40
2018-07-23T13:05:37.846Z,28.36
2018-07-23T13:08:07.056Z,28.32
2018-07-23T13:10:37.182Z,28.42
2018-07-23T13:13:06.337Z,28.48
2018-07-23T13:15:36.399Z,28.54
2018-07-23T13:18:05.413Z,28.72
2018-07-23T13:20:34.180Z,28.72
2018-07-23T13:23:02.920Z,28.42
2018-07-23T13:25:31.785Z,28.36
2018-07-23T13:28:00.933Z,28.37
2018-07-23T13:30:29.703Z,28.37
2018-07-23T13:32:58.579Z,28.36
2018-07-23T13:35:27.379Z,28.31
2018-07-23T13:37:56.233Z,28.42
2018-07-23T13:40:25.116Z,28.48
2018-07-23T13:42:53.859Z,28.47
2018-07-23T13:45:22.612Z,28.43
2018-07-23T13:47:52.701Z,28.37
2018-07-23T13:50:22.147Z,28.35
2018-07-23T13:52:51.545Z,28.45
2018-07-23T13:55:21.007Z,28.49
2018-07-23T13:57:50.519Z,28.56
2018-07-23T14:00:19.818Z,28.65
2018-07-23T14:02:49.323Z,28.65
2018-07-23T14:05:18.075Z,28.77
2018-07-23T14:07:46.847Z,28.72
2018-07-23T14:10:15.683Z,28.65
2018-07-23T14:12:44.601Z,28.70
2018-07-23T14:15:13.586Z,28.67
2018-07-23T14:17:42.679Z,28.61
2018-07-23T14:20:11.455Z,28.60
2018-07-23T14:22:40.584Z,28.55
2018-07-23T14:25:09.375Z,28.46
2018-07-23T14:27:38.519Z,28.40
2018-07-23T14:30:07.655Z,28.39
2018-07-23T14:32:37.584Z,28.40
2018-07-23T14:35:06.779Z,28.50
2018-07-23T14:37:35.953Z,28.58
2018-07-23T14:40:05.068Z,28.56
2018-07-23T14:42:34.494Z,28.56
2018-07-23T14:45:04.608Z,28.54
2018-07-23T14:47:33.451Z,28.50
2018-07-23T14:50:02.830Z,28.44
2018-07-23T14:52:32.654Z,28.47
2018-07-23T14:55:01.387Z,28.58
2018-07-23T14:57:30.990Z,28.61
2018-07-23T15:00:00.372Z,28.61
2018-07-23T15:02:30.046Z,28.64
2018-07-23T15:04:58.811Z,28.68
2018-07-23T15:07:27.625Z,28.63
2018-07-23T15:09:56.437Z,28.60
2018-07-23T15:12:25.250Z,28.61
2018-07-23T15:14:54.144Z,28.62
2018-07-23T15:17:23.031Z,28.67
2018-07-23T15:19:51.802Z,28.75
2018-07-23T15:22:20.556Z,28.79
2018-07-23T15:24:49.351Z,28.80
2018-07-23T15:27:18.322Z,28.87
2018-07-23T15:29:47.100Z,28.97
2018-07-23T15:32:15.890Z,29.21
2018-07-23T15:34:44.674Z,29.57
2018-07-23T15:37:13.424Z,29.92
2018-07-23T15:39:42.704Z,30.46
2018-07-23T15:42:11.437Z,31.06
2018-07-23T15:44:40.411Z,31.50
2018-07-23T15:47:09.163Z,31.92
2018-07-23T15:49:38.837Z,32.35
2018-07-23T15:52:08.443Z,32.74
2018-07-23T15:54:37.648Z,33.06
2018-07-23T15:57:07.208Z,33.20
2018-07-23T15:59:36.395Z,33.58
2018-07-23T16:02:05.919Z,33.95
2018-07-23T16:04:34.735Z,34.26
2018-07-23T16:07:03.562Z,34.74
2018-07-23T16:09:32.403Z,35.06
2018-07-23T16:12:01.159Z,35.21
2018-07-23T16:14:30.098Z,35.32
2018-07-23T16:16:58.936Z,35.33
2018-07-23T16:19:27.711Z,35.41
2018-07-23T16:21:56.571Z,35.38
2018-07-23T16:24:25.383Z,35.23
2018-07-23T16:26:54.612Z,34.92
2018-07-23T16:29:23.427Z,34.81
2018-07-23T16:31:52.341Z,34.78
2018-07-23T16:34:21.122Z,34.91
2018-07-23T16:36:49.924Z,35.19
2018-07-23T16:39:18.914Z,35.60
2018-07-23T16:41:47.700Z,35.83
2018-07-23T16:44:16.563Z,35.63
2018-07-23T16:46:45.419Z,35.69
2018-07-23T16:49:14.934Z,35.68
2018-07-23T16:51:44.492Z,35.95
2018-07-23T16:54:13.312Z,35.95
2018-07-23T16:56:42.992Z,35.86
2018-07-23T16:59:11.749Z,35.80
2018-07-23T17:01:41.106Z,35.67
2018-07-23T17:04:09.870Z,35.70
2018-07-23T17:06:38.764Z,35.83
2018-07-23T17:09:09.979Z,35.86
2018-07-23T17:11:38.862Z,35.96
2018-07-23T17:14:08.223Z,35.98
2018-07-23T17:16:37.561Z,35.96
2018-07-23T17:19:06.757Z,35.96
2018-07-23T17:21:35.841Z,36.02
2018-07-23T17:24:04.757Z,36.03
2018-07-23T17:26:33.839Z,36.20
2018-07-23T17:29:02.610Z,36.14
2018-07-23T17:31:31.417Z,36.03
2018-07-23T17:34:00.140Z,36.06
2018-07-23T17:36:28.891Z,36.19
2018-07-23T17:38:57.794Z,35.99
2018-07-23T17:41:26.611Z,35.82
2018-07-23T17:43:55.390Z,35.77
2018-07-23T17:46:24.246Z,35.75
2018-07-23T17:48:53.983Z,35.71
2018-07-23T17:51:23.561Z,35.50
2018-07-23T17:53:52.379Z,35.44
2018-07-23T17:56:21.907Z,35.35
2018-07-23T17:58:50.844Z,35.31
2018-07-23T18:01:20.187Z,35.34
2018-07-23T18:03:49.774Z,35.23
2018-07-23T18:06:18.672Z,35.04
2018-07-23T18:08:47.611Z,34.87
2018-07-23T18:11:16.756Z,34.69
2018-07-23T18:13:45.617Z,34.56
2018-07-23T18:16:14.584Z,34.38
2018-07-23T18:18:43.549Z,34.22
2018-07-23T18:21:12.293Z,34.03
2018-07-23T18:23:41.504Z,33.99
2018-07-23T18:26:10.300Z,33.96
2018-07-23T18:28:39.592Z,33.86
2018-07-23T18:31:08.400Z,33.62
2018-07-23T18:33:38.009Z,33.15
2018-07-23T18:36:37.606Z,32.72
2018-07-23T18:39:11.041Z,32.09
2018-07-23T18:41:40.230Z,31.56
2018-07-23T18:44:09.302Z,31.05
2018-07-23T18:46:38.642Z,30.59
2018-07-23T18:49:50.884Z,30.25
2018-07-23T18:52:20.919Z,29.83
2018-07-23T18:55:52.239Z,29.51
2018-07-23T18:58:21.443Z,29.04
2018-07-23T19:00:51.043Z,28.85
2018-07-23T19:03:20.464Z,28.66
2018-07-23T19:05:49.221Z,28.50
2018-07-23T19:08:18.009Z,28.35
2018-07-23T19:10:46.839Z,28.20
2018-07-23T19:13:15.613Z,28.01
2018-07-23T19:15:44.515Z,27.86
2018-07-23T19:18:13.351Z,27.68
2018-07-23T19:20:42.153Z,27.51
2018-07-23T19:23:10.932Z,27.34
2018-07-23T19:25:39.787Z,27.16
2018-07-23T19:28:08.724Z,27.03
2018-07-23T19:30:37.822Z,26.91
2018-07-23T19:33:06.868Z,26.80
2018-07-23T19:35:35.859Z,26.69
2018-07-23T19:38:04.774Z,26.60
2018-07-23T19:40:33.695Z,26.51
2018-07-23T19:43:02.497Z,26.40
2018-07-23T19:45:31.292Z,26.28
2018-07-23T19:48:01.029Z,26.17
2018-07-23T19:50:30.673Z,26.09
2018-07-23T19:53:00.029Z,26.00
2018-07-23T19:55:30.446Z,25.89
2018-07-23T19:57:59.951Z,25.80
2018-07-23T20:00:29.168Z,25.68
2018-07-23T20:02:58.400Z,25.58
2018-07-23T20:05:27.228Z,25.48
2018-07-23T20:07:55.972Z,25.40
2018-07-23T20:10:24.735Z,25.31
2018-07-23T20:12:53.551Z,25.19
2018-07-23T20:15:22.393Z,25.11
2018-07-23T20:17:51.250Z,25.03
2018-07-23T20:20:20.027Z,24.96
2018-07-23T20:22:48.765Z,24.89
2018-07-23T20:25:17.547Z,24.80
2018-07-23T20:27:46.587Z,24.73
2018-07-23T20:30:15.343Z,24.65
2018-07-23T20:32:44.132Z,24.59
2018-07-23T20:35:13.077Z,24.54
2018-07-23T20:37:41.714Z,24.45
2018-07-23T20:40:10.836Z,24.38
2018-07-23T20:42:39.619Z,24.32
2018-07-23T20:45:08.577Z,24.23
2018-07-23T20:47:37.767Z,24.20
2018-07-23T20:50:08.097Z,24.16
2018-07-23T20:52:38.126Z,24.11
2018-07-23T20:55:07.576Z,24.07
2018-07-23T20:57:38.219Z,24.03
2018-07-23T21:00:08.559Z,23.98
2018-07-23T21:02:38.148Z,23.92
2018-07-23T21:05:08.164Z,23.87
2018-07-23T21:07:37.331Z,23.77
2018-07-23T21:10:06.674Z,23.72
2018-07-23T21:12:35.662Z,23.68
2018-07-23T21:15:05.399Z,23.64
2018-07-23T21:17:34.532Z,23.58
2018-07-23T21:20:03.477Z,23.53
2018-07-23T21:22:32.230Z,23.46
2018-07-23T21:25:01.075Z,23.39
2018-07-23T21:27:30.231Z,23.32
2018-07-23T21:29:59.175Z,23.24
2018-07-23T21:32:28.021Z,23.19
2018-07-23T21:34:56.964Z,23.13
2018-07-23T21:37:25.776Z,23.08
2018-07-23T21:39:54.694Z,23.03
2018-07-23T21:42:23.428Z,22.98
2018-07-23T21:44:52.167Z,22.92
2018-07-23T21:47:21.007Z,22.86
2018-07-23T21:49:50.824Z,22.80
2018-07-23T21:52:20.456Z,22.74
2018-07-23T21:54:49.219Z,22.67
2018-07-23T21:57:18.604Z,22.60
2018-07-23T21:59:48.195Z,22.55
2018-07-23T22:02:17.578Z,22.49
2018-07-23T22:04:46.387Z,22.46
2018-07-23T22:07:15.159Z,22.42
2018-07-23T22:09:43.925Z,22.36
2018-07-23T22:12:12.687Z,22.32
2018-07-23T22:14:41.708Z,22.26
2018-07-23T22:17:10.941Z,22.22
2018-07-23T22:19:39.783Z,22.17
2018-07-23T22:22:08.553Z,22.13
2018-07-23T22:24:37.641Z,22.09
2018-07-23T22:27:07.051Z,22.08
2018-07-23T22:29:36.049Z,22.04
2018-07-23T22:32:05.117Z,21.99
2018-07-23T22:34:33.923Z,21.97
2018-07-23T22:37:02.688Z,21.90
2018-07-23T22:39:31.594Z,21.85
2018-07-23T22:42:00.375Z,21.78
2018-07-23T22:44:29.165Z,21.70
2018-07-23T22:46:57.923Z,21.64
2018-07-23T22:49:27.544Z,21.59
2018-07-23T22:51:57.139Z,21.54
2018-07-23T22:54:25.920Z,21.51
2018-07-23T22:56:55.408Z,21.46
2018-07-23T22:59:24.284Z,21.43
2018-07-23T23:01:55.005Z,21.39
2018-07-23T23:04:23.831Z,21.33
2018-07-23T23:06:52.599Z,21.29
2018-07-23T23:09:21.443Z,21.25
2018-07-23T23:11:50.207Z,21.22
2018-07-23T23:14:19.221Z,21.17
2018-07-23T23:16:48.203Z,21.14
2018-07-23T23:19:16.984Z,21.10
2018-07-23T23:21:45.775Z,21.07
2018-07-23T23:24:14.542Z,21.01
2018-07-23T23:26:43.604Z,20.97
2018-07-23T23:29:12.341Z,20.92
2018-07-23T23:31:41.222Z,20.88
2018-07-23T23:34:10.016Z,20.85
2018-07-23T23:36:38.862Z,20.78
2018-07-23T23:39:09.490Z,20.78
2018-07-23T23:41:39.443Z,20.75
2018-07-23T23:44:09.488Z,20.74
2018-07-23T23:46:39.378Z,20.71
2018-07-23T23:49:08.942Z,20.69
2018-07-23T23:51:39.297Z,20.64
2018-07-23T23:54:08.448Z,20.60
2018-07-23T23:56:39.666Z,20.54
2018-07-23T23:59:08.875Z,20.47
